ARG1918 SAEZ-SARI
Flight info
| Callsign | ARG1918 |
|---|---|
| Flight time | 1h 29m |
| Altitude | 39000 |
| Route | LANDA3A LANDA UN785 GEMSU UT667 NAIDE DCT DOKBA |
| Aircraft | B738/M-SDE2E3FGHIRWXY/LB1 |
Departure
| Time | 2026-05-05 20:05 |
|---|---|
| Airport | Ezeiza International Airport - Ministro Pistarini (SAEZ) |
Arrival
| Time | 2026-05-05 21:35 |
|---|---|
| Airport | Cataratas Del Iguazú International Airport (SARI) |
| Time | Latitude | Longitude | Altitude | Speed | Heading |
|---|---|---|---|---|---|
| 2026-05-05 19:32 | -34.81675 | -58.54160 | 74 ft | 0 kts | 12° |
| 2026-05-05 19:56 | -34.81688 | -58.54164 | 61 ft | 3 kts | 12° |
| 2026-05-05 19:56 | -34.81707 | -58.54168 | 64 ft | 3 kts | 12° |
| 2026-05-05 19:56 | -34.81725 | -58.54173 | 68 ft | 3 kts | 12° |
| 2026-05-05 19:57 | -34.81739 | -58.54177 | 67 ft | 0 kts | 12° |
| 2026-05-05 19:57 | -34.81750 | -58.54177 | 65 ft | 3 kts | 337° |
| 2026-05-05 19:57 | -34.81767 | -58.54169 | 65 ft | 3 kts | 337° |
| 2026-05-05 19:57 | -34.81779 | -58.54160 | 65 ft | 3 kts | 294° |
| 2026-05-05 19:58 | -34.81780 | -58.54157 | 64 ft | 0 kts | 281° |
| 2026-05-05 20:00 | -34.81779 | -58.54167 | 75 ft | 3 kts | 281° |
| 2026-05-05 20:01 | -34.81776 | -58.54205 | 73 ft | 6 kts | 273° |
| 2026-05-05 20:01 | -34.81773 | -58.54269 | 75 ft | 9 kts | 274° |
| 2026-05-05 20:01 | -34.81765 | -58.54357 | 69 ft | 12 kts | 277° |
| 2026-05-05 20:01 | -34.81754 | -58.54466 | 71 ft | 13 kts | 275° |
| 2026-05-05 20:02 | -34.81762 | -58.54580 | 73 ft | 14 kts | 255° |
| 2026-05-05 20:02 | -34.81779 | -58.54698 | 67 ft | 14 kts | 266° |
| 2026-05-05 20:02 | -34.81768 | -58.54821 | 71 ft | 15 kts | 282° |
| 2026-05-05 20:02 | -34.81745 | -58.54947 | 75 ft | 16 kts | 282° |
| 2026-05-05 20:03 | -34.81721 | -58.55078 | 67 ft | 16 kts | 282° |
| 2026-05-05 20:03 | -34.81699 | -58.55200 | 73 ft | 12 kts | 281° |
| 2026-05-05 20:03 | -34.81710 | -58.55299 | 66 ft | 12 kts | 237° |
| 2026-05-05 20:03 | -34.81778 | -58.55338 | 69 ft | 11 kts | 182° |
| 2026-05-05 20:04 | -34.81841 | -58.55310 | 77 ft | 9 kts | 147° |
| 2026-05-05 20:04 | -34.81889 | -58.55268 | 74 ft | 8 kts | 142° |
| 2026-05-05 20:04 | -34.81924 | -58.55219 | 70 ft | 7 kts | 115° |
| 2026-05-05 20:04 | -34.81942 | -58.55143 | 71 ft | 20 kts | 104° |
| 2026-05-05 20:05 | -34.82015 | -58.54731 | 82 ft | 80 kts | 102° |
| 2026-05-05 20:05 | -34.82177 | -58.53828 | 80 ft | 138 kts | 102° |
| 2026-05-05 20:05 | -34.82400 | -58.52545 | 405 ft | 161 kts | 101° |
| 2026-05-05 20:05 | -34.82744 | -58.51213 | 1041 ft | 176 kts | 119° |
| 2026-05-05 20:06 | -34.83520 | -58.49999 | 1741 ft | 185 kts | 130° |
| 2026-05-05 20:06 | -34.84364 | -58.48783 | 2424 ft | 193 kts | 129° |
| 2026-05-05 20:06 | -34.85205 | -58.47449 | 2947 ft | 205 kts | 127° |
| 2026-05-05 20:06 | -34.86050 | -58.45978 | 3430 ft | 220 kts | 122° |
| 2026-05-05 20:07 | -34.86855 | -58.44329 | 3927 ft | 234 kts | 120° |
| 2026-05-05 20:07 | -34.87730 | -58.42567 | 4426 ft | 253 kts | 129° |
| 2026-05-05 20:07 | -34.89031 | -58.41060 | 5051 ft | 266 kts | 149° |
| 2026-05-05 20:07 | -34.90738 | -58.40129 | 5662 ft | 275 kts | 171° |
| 2026-05-05 20:08 | -34.92648 | -58.39971 | 6286 ft | 279 kts | 194° |
| 2026-05-05 20:08 | -34.94487 | -58.40632 | 6989 ft | 275 kts | 213° |
| 2026-05-05 20:08 | -34.95991 | -58.41994 | 7822 ft | 268 kts | 233° |
| 2026-05-05 20:08 | -34.96854 | -58.43950 | 8629 ft | 264 kts | 258° |
| 2026-05-05 20:09 | -34.96834 | -58.46176 | 9384 ft | 270 kts | 285° |
| 2026-05-05 20:09 | -34.95853 | -58.48155 | 10058 ft | 284 kts | 315° |
| 2026-05-05 20:09 | -34.94082 | -58.49300 | 10587 ft | 301 kts | 343° |
| 2026-05-05 20:09 | -34.91971 | -58.49692 | 11054 ft | 315 kts | 352° |
| 2026-05-05 20:10 | -34.89728 | -58.49801 | 11456 ft | 331 kts | 356° |
| 2026-05-05 20:10 | -34.87378 | -58.49836 | 11846 ft | 345 kts | 356° |
| 2026-05-05 20:10 | -34.84953 | -58.49945 | 12368 ft | 352 kts | 354° |
| 2026-05-05 20:10 | -34.82506 | -58.50148 | 13097 ft | 354 kts | 352° |
| 2026-05-05 20:11 | -34.80058 | -58.50389 | 13857 ft | 354 kts | 352° |
| 2026-05-05 20:11 | -34.77601 | -58.50619 | 14519 ft | 356 kts | 352° |
| 2026-05-05 20:11 | -34.75132 | -58.50822 | 15205 ft | 357 kts | 352° |
| 2026-05-05 20:11 | -34.72649 | -58.51010 | 15870 ft | 359 kts | 352° |
| 2026-05-05 20:12 | -34.70154 | -58.51201 | 16541 ft | 361 kts | 352° |
| 2026-05-05 20:12 | -34.67646 | -58.51400 | 17207 ft | 363 kts | 351° |
| 2026-05-05 20:12 | -34.65124 | -58.51606 | 17864 ft | 365 kts | 351° |
| 2026-05-05 20:12 | -34.62586 | -58.51814 | 18478 ft | 368 kts | 351° |
| 2026-05-05 20:13 | -34.60029 | -58.52021 | 19006 ft | 371 kts | 351° |
| 2026-05-05 20:13 | -34.57448 | -58.52227 | 19519 ft | 374 kts | 351° |
| 2026-05-05 20:13 | -34.54841 | -58.52435 | 20028 ft | 378 kts | 351° |
| 2026-05-05 20:13 | -34.52209 | -58.52645 | 20532 ft | 382 kts | 351° |
| 2026-05-05 20:14 | -34.49553 | -58.52858 | 21030 ft | 385 kts | 351° |
| 2026-05-05 20:14 | -34.46872 | -58.53072 | 21522 ft | 389 kts | 351° |
| 2026-05-05 20:14 | -34.44163 | -58.53289 | 22012 ft | 393 kts | 351° |
| 2026-05-05 20:14 | -34.41430 | -58.53509 | 22499 ft | 396 kts | 351° |
| 2026-05-05 20:15 | -34.38673 | -58.53730 | 22970 ft | 400 kts | 351° |
| 2026-05-05 20:15 | -34.35894 | -58.53952 | 23421 ft | 403 kts | 351° |
| 2026-05-05 20:15 | -34.33090 | -58.54174 | 23813 ft | 406 kts | 351° |
| 2026-05-05 20:15 | -34.30264 | -58.54398 | 24172 ft | 409 kts | 351° |
| 2026-05-05 20:16 | -34.27421 | -58.54624 | 24557 ft | 411 kts | 350° |
| 2026-05-05 20:16 | -34.24563 | -58.54852 | 24946 ft | 414 kts | 350° |
| 2026-05-05 20:16 | -34.21690 | -58.55082 | 25309 ft | 416 kts | 350° |
| 2026-05-05 20:16 | -34.18800 | -58.55313 | 25686 ft | 418 kts | 350° |
| 2026-05-05 20:17 | -34.15895 | -58.55544 | 26046 ft | 420 kts | 350° |
| 2026-05-05 20:17 | -34.12975 | -58.55776 | 26397 ft | 423 kts | 350° |
| 2026-05-05 20:17 | -34.10038 | -58.56009 | 26740 ft | 425 kts | 350° |
| 2026-05-05 20:17 | -34.07089 | -58.56241 | 27069 ft | 426 kts | 349° |
| 2026-05-05 20:18 | -34.04134 | -58.56474 | 27433 ft | 427 kts | 349° |
| 2026-05-05 20:18 | -34.01170 | -58.56709 | 27758 ft | 429 kts | 349° |
| 2026-05-05 20:18 | -33.98192 | -58.56946 | 28074 ft | 431 kts | 349° |
| 2026-05-05 20:18 | -33.95201 | -58.57184 | 28380 ft | 433 kts | 349° |
| 2026-05-05 20:19 | -33.92197 | -58.57422 | 28664 ft | 435 kts | 349° |
| 2026-05-05 20:19 | -33.89178 | -58.57649 | 28953 ft | 437 kts | 350° |
| 2026-05-05 20:19 | -33.86136 | -58.57803 | 29223 ft | 440 kts | 351° |
| 2026-05-05 20:19 | -33.83079 | -58.57896 | 29529 ft | 441 kts | 351° |
| 2026-05-05 20:20 | -33.80013 | -58.57985 | 29756 ft | 443 kts | 351° |
| 2026-05-05 20:20 | -33.73782 | -58.58265 | 29942 ft | 453 kts | 350° |
| 2026-05-05 20:20 | -33.70632 | -58.58421 | 30177 ft | 455 kts | 351° |
| 2026-05-05 20:21 | -33.67476 | -58.58561 | 30428 ft | 455 kts | 351° |
| 2026-05-05 20:21 | -33.64319 | -58.58689 | 30665 ft | 455 kts | 350° |
| 2026-05-05 20:21 | -33.61166 | -58.58817 | 30956 ft | 454 kts | 350° |
| 2026-05-05 20:21 | -33.58021 | -58.58951 | 31248 ft | 453 kts | 350° |
| 2026-05-05 20:22 | -33.54882 | -58.59090 | 31525 ft | 452 kts | 350° |
| 2026-05-05 20:22 | -33.51747 | -58.59230 | 31789 ft | 452 kts | 350° |
| 2026-05-05 20:22 | -33.48614 | -58.59367 | 32055 ft | 451 kts | 350° |
| 2026-05-05 20:22 | -33.45483 | -58.59502 | 32320 ft | 451 kts | 350° |
| 2026-05-05 20:23 | -33.42355 | -58.59636 | 32567 ft | 451 kts | 350° |
| 2026-05-05 20:23 | -33.39229 | -58.59770 | 32837 ft | 450 kts | 350° |
| 2026-05-05 20:23 | -33.36107 | -58.59905 | 33110 ft | 450 kts | 350° |
| 2026-05-05 20:23 | -33.32988 | -58.60040 | 33384 ft | 449 kts | 350° |
| 2026-05-05 20:24 | -33.29873 | -58.60175 | 33660 ft | 449 kts | 350° |
| 2026-05-05 20:24 | -33.26759 | -58.60310 | 33933 ft | 449 kts | 350° |
| 2026-05-05 20:24 | -33.23649 | -58.60444 | 34173 ft | 448 kts | 350° |
| 2026-05-05 20:24 | -33.20541 | -58.60577 | 34395 ft | 448 kts | 350° |
| 2026-05-05 20:25 | -33.17434 | -58.60710 | 34567 ft | 448 kts | 349° |
| 2026-05-05 20:25 | -33.14327 | -58.60845 | 34769 ft | 448 kts | 349° |
| 2026-05-05 20:25 | -33.11219 | -58.60979 | 34976 ft | 448 kts | 349° |
| 2026-05-05 20:25 | -33.08110 | -58.61111 | 35173 ft | 448 kts | 349° |
| 2026-05-05 20:26 | -33.05002 | -58.61244 | 35369 ft | 448 kts | 349° |
| 2026-05-05 20:26 | -33.01878 | -58.61241 | 35488 ft | 456 kts | 357° |
| 2026-05-05 20:26 | -32.98726 | -58.60578 | 35709 ft | 467 kts | 7° |
| 2026-05-05 20:26 | -32.95606 | -58.59510 | 35908 ft | 468 kts | 8° |
| 2026-05-05 20:27 | -32.92490 | -58.58371 | 36053 ft | 471 kts | 9° |
| 2026-05-05 20:27 | -32.89371 | -58.57189 | 36223 ft | 472 kts | 9° |
| 2026-05-05 20:27 | -32.86249 | -58.56013 | 36419 ft | 472 kts | 9° |
| 2026-05-05 20:27 | -32.83122 | -58.54866 | 36621 ft | 471 kts | 9° |
| 2026-05-05 20:28 | -32.79999 | -58.53743 | 36905 ft | 469 kts | 8° |
| 2026-05-05 20:28 | -32.76890 | -58.52626 | 37197 ft | 467 kts | 8° |
| 2026-05-05 20:28 | -32.73793 | -58.51502 | 37434 ft | 466 kts | 9° |
| 2026-05-05 20:28 | -32.70705 | -58.50373 | 37600 ft | 466 kts | 8° |
| 2026-05-05 20:29 | -32.67616 | -58.49243 | 37823 ft | 465 kts | 8° |
| 2026-05-05 20:29 | -32.64530 | -58.48119 | 38025 ft | 465 kts | 8° |
| 2026-05-05 20:29 | -32.61447 | -58.47001 | 38224 ft | 464 kts | 8° |
| 2026-05-05 20:29 | -32.58370 | -58.45888 | 38449 ft | 463 kts | 8° |
| 2026-05-05 20:30 | -32.55293 | -58.44774 | 38542 ft | 465 kts | 8° |
| 2026-05-05 20:30 | -32.49085 | -58.42529 | 38628 ft | 470 kts | 8° |
| 2026-05-05 20:31 | -32.42808 | -58.40256 | 38701 ft | 475 kts | 8° |
| 2026-05-05 20:31 | -32.36466 | -58.37965 | 38793 ft | 480 kts | 8° |
| 2026-05-05 20:32 | -32.30065 | -58.35658 | 38851 ft | 484 kts | 8° |
| 2026-05-05 20:32 | -32.23630 | -58.33335 | 38952 ft | 485 kts | 8° |
| 2026-05-05 20:33 | -32.17175 | -58.31011 | 38957 ft | 486 kts | 8° |
| 2026-05-05 20:33 | -32.10721 | -58.28693 | 38959 ft | 486 kts | 8° |
| 2026-05-05 20:34 | -32.04270 | -58.26379 | 38960 ft | 486 kts | 8° |
| 2026-05-05 20:34 | -31.97820 | -58.24069 | 38958 ft | 485 kts | 8° |
| 2026-05-05 20:35 | -31.91369 | -58.21762 | 38944 ft | 486 kts | 8° |
| 2026-05-05 20:35 | -31.84909 | -58.19455 | 38951 ft | 486 kts | 8° |
| 2026-05-05 20:36 | -31.78437 | -58.17146 | 38953 ft | 487 kts | 8° |
| 2026-05-05 20:36 | -31.71954 | -58.14837 | 38950 ft | 488 kts | 8° |
| 2026-05-05 20:37 | -31.65463 | -58.12530 | 38948 ft | 489 kts | 8° |
| 2026-05-05 20:37 | -31.58961 | -58.10221 | 38949 ft | 490 kts | 8° |
| 2026-05-05 20:38 | -31.52446 | -58.07911 | 38945 ft | 490 kts | 8° |
| 2026-05-05 20:38 | -31.45923 | -58.05601 | 38950 ft | 491 kts | 8° |
| 2026-05-05 20:39 | -31.39393 | -58.03293 | 38949 ft | 491 kts | 7° |
| 2026-05-05 20:39 | -31.32853 | -58.00985 | 38980 ft | 492 kts | 7° |
| 2026-05-05 20:40 | -31.26301 | -57.98675 | 38987 ft | 493 kts | 7° |
| 2026-05-05 20:40 | -31.19741 | -57.96365 | 38983 ft | 494 kts | 7° |
| 2026-05-05 20:41 | -31.13173 | -57.94057 | 38965 ft | 494 kts | 7° |
| 2026-05-05 20:41 | -31.06596 | -57.91749 | 38951 ft | 495 kts | 7° |
| 2026-05-05 20:42 | -31.00011 | -57.89441 | 38956 ft | 496 kts | 7° |
| 2026-05-05 20:42 | -30.93414 | -57.87132 | 38954 ft | 496 kts | 7° |
| 2026-05-05 20:43 | -30.86806 | -57.84823 | 38946 ft | 497 kts | 7° |
| 2026-05-05 20:43 | -30.80187 | -57.82514 | 38953 ft | 498 kts | 7° |
| 2026-05-05 20:44 | -30.73556 | -57.80204 | 38954 ft | 499 kts | 7° |
| 2026-05-05 20:44 | -30.66918 | -57.77892 | 38948 ft | 499 kts | 7° |
| 2026-05-05 20:45 | -30.56951 | -57.74394 | 38945 ft | 501 kts | 7° |
| 2026-05-05 20:45 | -30.50289 | -57.72066 | 38955 ft | 502 kts | 7° |
| 2026-05-05 20:46 | -30.43613 | -57.69738 | 38957 ft | 503 kts | 7° |
| 2026-05-05 20:46 | -30.36927 | -57.67405 | 38966 ft | 503 kts | 7° |
| 2026-05-05 20:47 | -30.30232 | -57.65075 | 38940 ft | 504 kts | 6° |
| 2026-05-05 20:47 | -30.26923 | -57.63630 | 38954 ft | 517 kts | 17° |
| 2026-05-05 20:47 | -30.23777 | -57.61540 | 38969 ft | 528 kts | 25° |
| 2026-05-05 20:48 | -30.17701 | -57.56750 | 38958 ft | 531 kts | 27° |
| 2026-05-05 20:48 | -30.11660 | -57.51846 | 38957 ft | 532 kts | 27° |
| 2026-05-05 20:49 | -30.05567 | -57.47040 | 38933 ft | 532 kts | 26° |
| 2026-05-05 20:49 | -29.99468 | -57.42225 | 38959 ft | 533 kts | 26° |
| 2026-05-05 20:50 | -29.93368 | -57.37369 | 38965 ft | 534 kts | 26° |
| 2026-05-05 20:50 | -29.87243 | -57.32531 | 38964 ft | 535 kts | 26° |
| 2026-05-05 20:51 | -29.81107 | -57.27693 | 38963 ft | 536 kts | 26° |
| 2026-05-05 20:51 | -29.74965 | -57.22845 | 38947 ft | 537 kts | 26° |
| 2026-05-05 20:52 | -29.68812 | -57.18002 | 38980 ft | 538 kts | 26° |
| 2026-05-05 20:52 | -29.62644 | -57.13157 | 38984 ft | 539 kts | 26° |
| 2026-05-05 20:53 | -29.56465 | -57.08307 | 38977 ft | 539 kts | 26° |
| 2026-05-05 20:53 | -29.50276 | -57.03457 | 38978 ft | 540 kts | 26° |
| 2026-05-05 20:54 | -29.44078 | -56.98608 | 38977 ft | 540 kts | 26° |
| 2026-05-05 20:54 | -29.37874 | -56.93761 | 38979 ft | 541 kts | 26° |
| 2026-05-05 20:55 | -29.31666 | -56.88919 | 38980 ft | 541 kts | 26° |
| 2026-05-05 20:55 | -29.25455 | -56.84082 | 38979 ft | 541 kts | 26° |
| 2026-05-05 20:56 | -29.19240 | -56.79248 | 38981 ft | 541 kts | 26° |
| 2026-05-05 20:56 | -29.13019 | -56.74417 | 38962 ft | 542 kts | 26° |
| 2026-05-05 20:57 | -29.06795 | -56.69591 | 38976 ft | 542 kts | 26° |
| 2026-05-05 20:57 | -29.00569 | -56.64771 | 38978 ft | 542 kts | 26° |
| 2026-05-05 20:58 | -28.94336 | -56.59952 | 38988 ft | 542 kts | 26° |
| 2026-05-05 20:58 | -28.88097 | -56.55137 | 38986 ft | 543 kts | 26° |
| 2026-05-05 20:59 | -28.81850 | -56.50321 | 38965 ft | 543 kts | 26° |
| 2026-05-05 20:59 | -28.75602 | -56.45511 | 38984 ft | 543 kts | 26° |
| 2026-05-05 21:00 | -28.69350 | -56.40708 | 38993 ft | 543 kts | 26° |
| 2026-05-05 21:00 | -28.63093 | -56.35906 | 38993 ft | 544 kts | 26° |
| 2026-05-05 21:01 | -28.56832 | -56.31108 | 38991 ft | 544 kts | 26° |
| 2026-05-05 21:01 | -28.50567 | -56.26315 | 38987 ft | 544 kts | 26° |
| 2026-05-05 21:02 | -28.44301 | -56.21527 | 38991 ft | 544 kts | 26° |
| 2026-05-05 21:02 | -28.38032 | -56.16744 | 38996 ft | 544 kts | 26° |
| 2026-05-05 21:03 | -28.31761 | -56.11966 | 38995 ft | 544 kts | 26° |
| 2026-05-05 21:03 | -28.25487 | -56.07194 | 38996 ft | 544 kts | 26° |
| 2026-05-05 21:04 | -28.19212 | -56.02427 | 38978 ft | 544 kts | 27° |
| 2026-05-05 21:04 | -28.12943 | -55.97671 | 39000 ft | 543 kts | 27° |
| 2026-05-05 21:05 | -28.06675 | -55.92924 | 39001 ft | 543 kts | 27° |
| 2026-05-05 21:05 | -28.00395 | -55.88176 | 38649 ft | 549 kts | 27° |
| 2026-05-05 21:06 | -27.97233 | -55.85789 | 38086 ft | 546 kts | 27° |
| 2026-05-05 21:06 | -27.94092 | -55.83413 | 37567 ft | 542 kts | 27° |
| 2026-05-05 21:06 | -27.90974 | -55.81055 | 37087 ft | 539 kts | 27° |
| 2026-05-05 21:06 | -27.87874 | -55.78717 | 36608 ft | 535 kts | 27° |
| 2026-05-05 21:07 | -27.84793 | -55.76398 | 36140 ft | 532 kts | 28° |
| 2026-05-05 21:07 | -27.81728 | -55.74094 | 35668 ft | 529 kts | 28° |
| 2026-05-05 21:07 | -27.78678 | -55.71801 | 35195 ft | 526 kts | 28° |
| 2026-05-05 21:07 | -27.75644 | -55.69518 | 34716 ft | 524 kts | 28° |
| 2026-05-05 21:08 | -27.72625 | -55.67249 | 34260 ft | 521 kts | 28° |
| 2026-05-05 21:08 | -27.69622 | -55.64992 | 33765 ft | 518 kts | 28° |
| 2026-05-05 21:08 | -27.66637 | -55.62753 | 33275 ft | 514 kts | 28° |
| 2026-05-05 21:08 | -27.63674 | -55.60532 | 32822 ft | 510 kts | 28° |
| 2026-05-05 21:09 | -27.60736 | -55.58329 | 32363 ft | 506 kts | 28° |
| 2026-05-05 21:09 | -27.57820 | -55.56145 | 31896 ft | 502 kts | 28° |
| 2026-05-05 21:09 | -27.54929 | -55.53980 | 31461 ft | 498 kts | 28° |
| 2026-05-05 21:09 | -27.52062 | -55.51835 | 31025 ft | 494 kts | 28° |
| 2026-05-05 21:10 | -27.49217 | -55.49708 | 30583 ft | 490 kts | 28° |
| 2026-05-05 21:10 | -27.46393 | -55.47598 | 30151 ft | 487 kts | 28° |
| 2026-05-05 21:10 | -27.43588 | -55.45505 | 29672 ft | 483 kts | 28° |
| 2026-05-05 21:10 | -27.40810 | -55.43431 | 29225 ft | 478 kts | 28° |
| 2026-05-05 21:11 | -27.38059 | -55.41379 | 28803 ft | 473 kts | 28° |
| 2026-05-05 21:11 | -27.35334 | -55.39348 | 28378 ft | 468 kts | 28° |
| 2026-05-05 21:11 | -27.32636 | -55.37338 | 27958 ft | 464 kts | 28° |
| 2026-05-05 21:11 | -27.29962 | -55.35348 | 27551 ft | 460 kts | 28° |
| 2026-05-05 21:12 | -27.27311 | -55.33376 | 27144 ft | 456 kts | 28° |
| 2026-05-05 21:12 | -27.24682 | -55.31421 | 26724 ft | 452 kts | 29° |
| 2026-05-05 21:12 | -27.22075 | -55.29484 | 26331 ft | 448 kts | 29° |
| 2026-05-05 21:12 | -27.19489 | -55.27563 | 25925 ft | 445 kts | 29° |
| 2026-05-05 21:13 | -27.16921 | -55.25657 | 25540 ft | 442 kts | 29° |
| 2026-05-05 21:13 | -27.14372 | -55.23766 | 25144 ft | 438 kts | 29° |
| 2026-05-05 21:13 | -27.11841 | -55.21889 | 24751 ft | 435 kts | 29° |
| 2026-05-05 21:13 | -27.09326 | -55.20026 | 24365 ft | 433 kts | 30° |
| 2026-05-05 21:14 | -27.06822 | -55.18171 | 23980 ft | 430 kts | 30° |
| 2026-05-05 21:14 | -27.04338 | -55.16332 | 23590 ft | 427 kts | 30° |
| 2026-05-05 21:14 | -27.01871 | -55.14507 | 23160 ft | 424 kts | 30° |
| 2026-05-05 21:14 | -26.99432 | -55.12703 | 22772 ft | 420 kts | 30° |
| 2026-05-05 21:15 | -26.97013 | -55.10913 | 22394 ft | 415 kts | 30° |
| 2026-05-05 21:15 | -26.94612 | -55.09140 | 22008 ft | 411 kts | 30° |
| 2026-05-05 21:15 | -26.92245 | -55.07393 | 21658 ft | 407 kts | 30° |
| 2026-05-05 21:15 | -26.89891 | -55.05656 | 21303 ft | 403 kts | 30° |
| 2026-05-05 21:16 | -26.87561 | -55.03938 | 20937 ft | 400 kts | 30° |
| 2026-05-05 21:16 | -26.85251 | -55.02235 | 20580 ft | 397 kts | 30° |
| 2026-05-05 21:16 | -26.82960 | -55.00546 | 20225 ft | 394 kts | 30° |
| 2026-05-05 21:16 | -26.80686 | -54.98871 | 19872 ft | 390 kts | 30° |
| 2026-05-05 21:17 | -26.78432 | -54.97213 | 19521 ft | 387 kts | 30° |
| 2026-05-05 21:17 | -26.76196 | -54.95567 | 19178 ft | 384 kts | 30° |
| 2026-05-05 21:17 | -26.73978 | -54.93935 | 18832 ft | 381 kts | 30° |
| 2026-05-05 21:17 | -26.71778 | -54.92319 | 18500 ft | 378 kts | 30° |
| 2026-05-05 21:18 | -26.69596 | -54.90715 | 18144 ft | 375 kts | 30° |
| 2026-05-05 21:18 | -26.67438 | -54.89131 | 17789 ft | 371 kts | 30° |
| 2026-05-05 21:18 | -26.65295 | -54.87557 | 17450 ft | 366 kts | 30° |
| 2026-05-05 21:18 | -26.63182 | -54.86006 | 17126 ft | 362 kts | 30° |
| 2026-05-05 21:19 | -26.61095 | -54.84476 | 16799 ft | 357 kts | 30° |
| 2026-05-05 21:19 | -26.59029 | -54.82972 | 16480 ft | 352 kts | 27° |
| 2026-05-05 21:19 | -26.56852 | -54.81837 | 16189 ft | 342 kts | 14° |
| 2026-05-05 21:19 | -26.54572 | -54.81293 | 15938 ft | 330 kts | 2° |
| 2026-05-05 21:20 | -26.52344 | -54.81034 | 15935 ft | 317 kts | 1° |
| 2026-05-05 21:20 | -26.50152 | -54.80803 | 15864 ft | 316 kts | 1° |
| 2026-05-05 21:20 | -26.47983 | -54.80584 | 15566 ft | 312 kts | 1° |
| 2026-05-05 21:20 | -26.45819 | -54.80365 | 15137 ft | 314 kts | 1° |
| 2026-05-05 21:21 | -26.43653 | -54.80138 | 14774 ft | 313 kts | 1° |
| 2026-05-05 21:21 | -26.41498 | -54.79908 | 14417 ft | 311 kts | 1° |
| 2026-05-05 21:21 | -26.39356 | -54.79679 | 14071 ft | 309 kts | 1° |
| 2026-05-05 21:21 | -26.37226 | -54.79454 | 13709 ft | 307 kts | 1° |
| 2026-05-05 21:22 | -26.35109 | -54.79231 | 13320 ft | 305 kts | 2° |
| 2026-05-05 21:22 | -26.33009 | -54.79011 | 12965 ft | 302 kts | 2° |
| 2026-05-05 21:22 | -26.30929 | -54.78792 | 12618 ft | 299 kts | 2° |
| 2026-05-05 21:22 | -26.28868 | -54.78574 | 12279 ft | 297 kts | 2° |
| 2026-05-05 21:23 | -26.26827 | -54.78359 | 11931 ft | 294 kts | 2° |
| 2026-05-05 21:23 | -26.24805 | -54.78147 | 11594 ft | 291 kts | 2° |
| 2026-05-05 21:23 | -26.22801 | -54.77936 | 11255 ft | 289 kts | 3° |
| 2026-05-05 21:23 | -26.20813 | -54.77727 | 10928 ft | 286 kts | 3° |
| 2026-05-05 21:24 | -26.18843 | -54.77545 | 10606 ft | 283 kts | 2° |
| 2026-05-05 21:24 | -26.16892 | -54.77420 | 10292 ft | 280 kts | 1° |
| 2026-05-05 21:24 | -26.14958 | -54.77315 | 9976 ft | 278 kts | 1° |
| 2026-05-05 21:24 | -26.13039 | -54.77202 | 9632 ft | 276 kts | 2° |
| 2026-05-05 21:25 | -26.11136 | -54.77078 | 9273 ft | 274 kts | 2° |
| 2026-05-05 21:25 | -26.09246 | -54.76949 | 8909 ft | 272 kts | 2° |
| 2026-05-05 21:25 | -26.07367 | -54.76821 | 8556 ft | 270 kts | 2° |
| 2026-05-05 21:25 | -26.05498 | -54.76696 | 8226 ft | 269 kts | 2° |
| 2026-05-05 21:26 | -26.03642 | -54.76573 | 7888 ft | 267 kts | 2° |
| 2026-05-05 21:26 | -26.01800 | -54.76452 | 7570 ft | 265 kts | 2° |
| 2026-05-05 21:26 | -25.99970 | -54.76331 | 7231 ft | 263 kts | 2° |
| 2026-05-05 21:26 | -25.98150 | -54.76211 | 6907 ft | 262 kts | 2° |
| 2026-05-05 21:27 | -25.96338 | -54.76091 | 6593 ft | 261 kts | 2° |
| 2026-05-05 21:27 | -25.94535 | -54.75972 | 6286 ft | 259 kts | 2° |
| 2026-05-05 21:27 | -25.92745 | -54.75853 | 5955 ft | 258 kts | 2° |
| 2026-05-05 21:27 | -25.90961 | -54.75736 | 5626 ft | 257 kts | 2° |
| 2026-05-05 21:28 | -25.89184 | -54.75619 | 5276 ft | 256 kts | 2° |
| 2026-05-05 21:28 | -25.87410 | -54.75502 | 4946 ft | 255 kts | 2° |
| 2026-05-05 21:28 | -25.85643 | -54.75385 | 4625 ft | 254 kts | 3° |
| 2026-05-05 21:28 | -25.83882 | -54.75269 | 4268 ft | 254 kts | 3° |
| 2026-05-05 21:29 | -25.82129 | -54.75152 | 3923 ft | 252 kts | 4° |
| 2026-05-05 21:29 | -25.80388 | -54.75036 | 3606 ft | 250 kts | 4° |
| 2026-05-05 21:29 | -25.78654 | -54.74923 | 3267 ft | 250 kts | 4° |
| 2026-05-05 21:29 | -25.76919 | -54.74809 | 2910 ft | 250 kts | 4° |
| 2026-05-05 21:30 | -25.75186 | -54.74695 | 2588 ft | 249 kts | 4° |
| 2026-05-05 21:30 | -25.73471 | -54.74582 | 2509 ft | 246 kts | 4° |
| 2026-05-05 21:30 | -25.71766 | -54.74466 | 2498 ft | 246 kts | 6° |
| 2026-05-05 21:30 | -25.70133 | -54.73935 | 2491 ft | 249 kts | 28° |
| 2026-05-05 21:31 | -25.68847 | -54.72660 | 2495 ft | 252 kts | 53° |
| 2026-05-05 21:31 | -25.68053 | -54.70921 | 2502 ft | 256 kts | 63° |
| 2026-05-05 21:31 | -25.67367 | -54.69107 | 2494 ft | 255 kts | 65° |
| 2026-05-05 21:31 | -25.66743 | -54.67266 | 2502 ft | 259 kts | 72° |
| 2026-05-05 21:32 | -25.66567 | -54.65285 | 2484 ft | 262 kts | 92° |
| 2026-05-05 21:32 | -25.67043 | -54.63340 | 2504 ft | 263 kts | 107° |
| 2026-05-05 21:32 | -25.67765 | -54.61483 | 2510 ft | 259 kts | 110° |
| 2026-05-05 21:32 | -25.68479 | -54.59806 | 2503 ft | 221 kts | 110° |
| 2026-05-05 21:33 | -25.69098 | -54.58384 | 2508 ft | 191 kts | 110° |
| 2026-05-05 21:33 | -25.69651 | -54.57109 | 2457 ft | 181 kts | 110° |
| 2026-05-05 21:33 | -25.70192 | -54.55835 | 2285 ft | 185 kts | 110° |
| 2026-05-05 21:33 | -25.70727 | -54.54559 | 2065 ft | 178 kts | 110° |
| 2026-05-05 21:34 | -25.71228 | -54.53360 | 1834 ft | 167 kts | 109° |
| 2026-05-05 21:34 | -25.71702 | -54.52223 | 1642 ft | 159 kts | 110° |
| 2026-05-05 21:34 | -25.72156 | -54.51132 | 1420 ft | 154 kts | 112° |
| 2026-05-05 21:34 | -25.72599 | -54.50059 | 1214 ft | 153 kts | 114° |
| 2026-05-05 21:35 | -25.73039 | -54.48995 | 998 ft | 152 kts | 114° |
| 2026-05-05 21:35 | -25.73465 | -54.47976 | 929 ft | 130 kts | 114° |
| 2026-05-05 21:35 | -25.73655 | -54.47516 | 925 ft | 24 kts | 115° |
| 2026-05-05 21:35 | -25.73719 | -54.47363 | 928 ft | 17 kts | 115° |
| 2026-05-05 21:36 | -25.73714 | -54.47297 | 928 ft | 8 kts | 13° |
| 2026-05-05 21:36 | -25.73669 | -54.47320 | 926 ft | 7 kts | 327° |
| 2026-05-05 21:36 | -25.73628 | -54.47352 | 926 ft | 7 kts | 324° |
| 2026-05-05 21:36 | -25.73586 | -54.47385 | 926 ft | 7 kts | 324° |
| 2026-05-05 21:37 | -25.73546 | -54.47416 | 926 ft | 7 kts | 324° |
| 2026-05-05 21:37 | -25.73509 | -54.47446 | 928 ft | 6 kts | 324° |
| 2026-05-05 21:37 | -25.73476 | -54.47473 | 928 ft | 6 kts | 323° |
| 2026-05-05 21:37 | -25.73446 | -54.47498 | 926 ft | 5 kts | 322° |
| 2026-05-05 21:38 | -25.73419 | -54.47522 | 928 ft | 5 kts | 321° |
| 2026-05-05 21:38 | -25.73394 | -54.47544 | 929 ft | 4 kts | 321° |
| 2026-05-05 21:38 | -25.73371 | -54.47565 | 927 ft | 4 kts | 320° |
| 2026-05-05 21:38 | -25.73348 | -54.47583 | 928 ft | 4 kts | 326° |
| 2026-05-05 21:39 | -25.73323 | -54.47602 | 931 ft | 5 kts | 321° |
| 2026-05-05 21:39 | -25.73298 | -54.47639 | 926 ft | 7 kts | 301° |
| 2026-05-05 21:39 | -25.73275 | -54.47684 | 928 ft | 6 kts | 308° |
| 2026-05-05 21:39 | -25.73246 | -54.47684 | 929 ft | 4 kts | 18° |
| 2026-05-05 21:40 | -25.73226 | -54.47675 | 929 ft | 0 kts | 24° |